Time;durP1;ratioP1;P1;durP2;ratioP2;P2;SDS_P1;SDS_P2;PMS_P1;PMS_P2;Temp;Humidity;BMP_temperature;BMP_pressure;BME280_temperature;BME280_humidity;BME280_pressure;Samples;Min_cycle;Max_cycle;Signal;HPM_P1;HPM_P2
2024/03/11 00:00:51;;;;;;;;;;;;;;;10.06;67.74;98215.59;4130559;28;20385;-71
2024/03/11 00:02:52;;;;;;;;;;;;;;;9.87;68.14;98223.13;4131033;28;19917;-70
2024/03/11 00:04:54;;;;;;;;;;;;;;;9.95;67.68;98214.19;4130627;28;19945;-70
2024/03/11 00:06:54;;;;;;;;;;;;;;;10.16;67.61;98216.09;4130720;28;19917;-72
2024/03/11 00:08:56;;;;;;;;;;;;;;;10.22;67.10;98217.19;4130695;28;19917;-71
2024/03/11 00:11:00;;;;;;;;;;;;;;;10.08;67.71;98224.22;4131521;28;19913;-71
2024/03/11 00:13:00;;;;;;;;;;;;;;;10.05;67.63;98222.75;4146452;28;19913;-70
2024/03/11 00:15:01;;;;;;;;;;;;;;;10.20;67.62;98216.56;4131413;28;19955;-70
2024/03/11 00:17:05;;;;;;;;;;;;;;;10.26;66.82;98218.47;4130004;28;20100;-70
2024/03/11 00:19:06;;;;;;;;;;;;;;;10.13;67.94;98214.63;4145677;28;19924;-70
2024/03/11 00:21:06;;;;;;;;;;;;;;;10.23;68.00;98222.38;4129472;28;19914;-70
2024/03/11 00:23:07;;;;;;;;;;;;;;;10.06;67.91;98216.41;4129308;28;19913;-71
2024/03/11 00:25:08;;;;;;;;;;;;;;;9.98;68.50;98224.50;4130427;28;19971;-71
2024/03/11 00:27:09;;;;;;;;;;;;;;;10.00;68.26;98222.50;4130609;28;19996;-70
2024/03/11 00:29:09;;;;;;;;;;;;;;;9.92;68.10;98228.75;4145349;28;20377;-71
2024/03/11 00:31:11;;;;;;;;;;;;;;;9.96;68.16;98227.38;4129167;28;19909;-70
2024/03/11 00:33:13;;;;;;;;;;;;;;;10.10;67.95;98233.72;4130725;28;19913;-71
2024/03/11 00:35:14;;;;;;;;;;;;;;;10.05;68.34;98228.09;4130193;28;19910;-70
2024/03/11 00:37:15;;;;;;;;;;;;;;;10.09;68.12;98232.06;4130067;28;20393;-70
2024/03/11 00:39:15;;;;;;;;;;;;;;;10.07;67.91;98236.75;4130306;28;19910;-70
2024/03/11 00:41:16;;;;;;;;;;;;;;;10.07;67.61;98227.88;4145321;28;20000;-71
2024/03/11 00:43:16;;;;;;;;;;;;;;;10.18;67.40;98231.94;4129264;28;20332;-70
2024/03/11 00:45:18;;;;;;;;;;;;;;;10.12;67.40;98234.34;4144707;28;19948;-70
2024/03/11 00:47:18;;;;;;;;;;;;;;;10.15;67.32;98246.50;4128988;28;19910;-70
2024/03/11 00:49:21;;;;;;;;;;;;;;;10.01;67.54;98248.19;4130003;28;19920;-70
2024/03/11 00:51:22;;;;;;;;;;;;;;;10.11;67.18;98243.34;4130576;28;20008;-70
2024/03/11 00:53:22;;;;;;;;;;;;;;;9.87;67.71;98251.66;4145212;28;19909;-71
2024/03/11 00:55:22;;;;;;;;;;;;;;;9.89;67.55;98250.47;4129282;28;19909;-70
2024/03/11 00:57:25;;;;;;;;;;;;;;;9.72;68.28;98257.84;4130170;28;19952;-70
2024/03/11 00:59:25;;;;;;;;;;;;;;;9.88;68.09;98256.00;4130338;28;19910;-69
2024/03/11 01:01:25;;;;;;;;;;;;;;;9.91;68.02;98264.44;4145114;28;20330;-70
2024/03/11 01:03:26;;;;;;;;;;;;;;;9.97;67.28;98266.38;4130413;28;19914;-70
2024/03/11 01:05:26;;;;;;;;;;;;;;;9.93;67.33;98274.94;4129777;28;19909;-71
2024/03/11 01:07:26;;;;;;;;;;;;;;;9.80;67.82;98270.25;4129869;28;19957;-71
2024/03/11 01:09:27;;;;;;;;;;;;;;;9.92;67.48;98268.78;4130120;28;19914;-71
2024/03/11 01:11:27;;;;;;;;;;;;;;;9.91;67.50;98271.66;4130129;28;19910;-70
2024/03/11 01:13:27;;;;;;;;;;;;;;;9.82;67.62;98282.38;4130167;28;19909;-70
2024/03/11 01:15:28;;;;;;;;;;;;;;;9.76;67.96;98271.63;4129832;28;19909;-70
2024/03/11 01:17:28;;;;;;;;;;;;;;;9.96;67.53;98274.56;4129976;28;20251;-70
2024/03/11 01:19:29;;;;;;;;;;;;;;;9.93;67.70;98277.59;4130465;28;19916;-70
2024/03/11 01:21:29;;;;;;;;;;;;;;;9.90;67.83;98286.81;4130072;28;20412;-70
2024/03/11 01:23:29;;;;;;;;;;;;;;;9.87;67.42;98292.50;4130306;28;19914;-71
2024/03/11 01:25:30;;;;;;;;;;;;;;;9.98;66.87;98284.06;4146173;28;19909;-70
2024/03/11 01:27:30;;;;;;;;;;;;;;;9.91;67.42;98298.34;4133107;28;19910;-71
2024/03/11 01:29:30;;;;;;;;;;;;;;;10.01;67.23;98298.91;4132958;28;19913;-71
2024/03/11 01:31:31;;;;;;;;;;;;;;;9.91;67.57;98298.34;4148362;28;20377;-71
2024/03/11 01:33:32;;;;;;;;;;;;;;;9.73;68.28;98307.50;4133447;28;19914;-71
2024/03/11 01:35:32;;;;;;;;;;;;;;;9.79;68.73;98305.94;4132800;28;19913;-70
2024/03/11 01:37:32;;;;;;;;;;;;;;;9.81;68.44;98307.44;4132430;28;19918;-71
2024/03/11 01:39:44;;;;;;;;;;;;;;;9.70;69.01;98299.88;4133441;28;19910;-70
2024/03/11 01:41:45;;;;;;;;;;;;;;;9.79;69.08;98304.13;4132973;28;19917;-71
2024/03/11 01:43:45;;;;;;;;;;;;;;;9.70;68.83;98312.38;4132417;28;20358;-71
2024/03/11 01:45:46;;;;;;;;;;;;;;;9.71;69.44;98306.88;4132892;28;19913;-71
2024/03/11 01:47:47;;;;;;;;;;;;;;;9.55;69.47;98310.50;4132576;28;19909;-72
2024/03/11 01:49:51;;;;;;;;;;;;;;;9.50;69.46;98313.72;4132984;28;20034;-71
2024/03/11 01:51:51;;;;;;;;;;;;;;;9.58;69.25;98320.84;4132946;28;19916;-70
2024/03/11 01:53:51;;;;;;;;;;;;;;;9.54;69.57;98313.38;4132393;28;19988;-71
2024/03/11 01:55:52;;;;;;;;;;;;;;;9.64;69.36;98317.44;4146289;28;19925;-71
2024/03/11 01:57:54;;;;;;;;;;;;;;;9.77;69.00;98314.13;4132283;28;19910;-70
2024/03/11 01:59:54;;;;;;;;;;;;;;;9.79;68.92;98321.97;4129841;28;20432;-71
2024/03/11 02:01:57;;;;;;;;;;;;;;;9.77;68.91;98314.13;4132765;28;19917;-69
2024/03/11 02:03:58;;;;;;;;;;;;;;;9.79;69.22;98312.13;4130968;28;19910;-70
2024/03/11 02:05:59;;;;;;;;;;;;;;;9.92;69.17;98321.34;4132761;28;20021;-70
2024/03/11 02:08:01;;;;;;;;;;;;;;;9.91;68.76;98314.34;4132468;28;19909;-70
2024/03/11 02:10:13;;;;;;;;;;;;;;;9.72;69.45;98321.03;4132532;28;19913;-73
2024/03/11 02:12:14;;;;;;;;;;;;;;;9.71;70.11;98328.22;4133077;28;20009;-70
2024/03/11 02:14:14;;;;;;;;;;;;;;;9.77;70.46;98324.81;4143426;28;19909;-70
2024/03/11 02:16:15;;;;;;;;;;;;;;;9.69;70.66;98322.22;4145374;28;19913;-69
2024/03/11 02:18:16;;;;;;;;;;;;;;;9.69;70.25;98330.22;4157871;28;19916;-70
2024/03/11 02:20:16;;;;;;;;;;;;;;;9.86;70.08;98330.91;4133573;28;19921;-70
2024/03/11 02:22:17;;;;;;;;;;;;;;;9.80;70.05;98329.81;4130107;28;19918;-69
2024/03/11 02:24:17;;;;;;;;;;;;;;;9.83;70.33;98334.75;4130695;28;19916;-69
2024/03/11 02:26:19;;;;;;;;;;;;;;;9.74;70.59;98327.84;4116193;28;20013;-69
2024/03/11 02:28:20;;;;;;;;;;;;;;;9.71;70.37;98330.03;4116041;28;19917;-69
2024/03/11 02:30:21;;;;;;;;;;;;;;;9.86;70.49;98325.56;4118002;28;19914;-69
2024/03/11 02:32:21;;;;;;;;;;;;;;;9.84;70.19;98324.91;4132338;28;20012;-69
2024/03/11 02:34:22;;;;;;;;;;;;;;;9.77;70.59;98324.81;4131419;28;19952;-70
2024/03/11 02:36:22;;;;;;;;;;;;;;;9.63;70.40;98330.97;4131091;28;19918;-69
2024/03/11 02:38:22;;;;;;;;;;;;;;;9.62;70.63;98322.13;4146630;28;19920;-70
2024/03/11 02:40:26;;;;;;;;;;;;;;;9.75;70.35;98326.00;4131100;28;19949;-70
2024/03/11 02:42:26;;;;;;;;;;;;;;;9.80;70.49;98327.13;4126950;28;19985;-70
2024/03/11 02:44:28;;;;;;;;;;;;;;;9.89;70.22;98327.03;4131920;28;19906;-70
2024/03/11 02:46:28;;;;;;;;;;;;;;;9.76;70.82;98328.50;4115690;28;19910;-70
2024/03/11 02:48:29;;;;;;;;;;;;;;;9.73;70.85;98328.84;4115521;28;19910;-69
2024/03/11 02:50:31;;;;;;;;;;;;;;;9.74;70.99;98327.03;4115713;28;19925;-69
2024/03/11 02:52:36;;;;;;;;;;;;;;;9.67;71.28;98329.56;4115125;28;19910;-70
2024/03/11 02:54:37;;;;;;;;;;;;;;;9.70;71.49;98329.22;4115411;28;20568;-70
2024/03/11 02:56:37;;;;;;;;;;;;;;;9.78;71.12;98331.81;4114991;28;19910;-70
2024/03/11 02:58:38;;;;;;;;;;;;;;;9.90;70.96;98326.03;4131273;28;19917;-70
2024/03/11 03:00:38;;;;;;;;;;;;;;;9.99;70.52;98332.94;4131681;28;19972;-70
2024/03/11 03:02:39;;;;;;;;;;;;;;;10.02;70.23;98335.22;4132133;28;20362;-70
2024/03/11 03:04:40;;;;;;;;;;;;;;;10.15;69.99;98339.97;4131943;28;19916;-70
2024/03/11 03:06:40;;;;;;;;;;;;;;;9.86;70.55;98343.41;4132053;28;19914;-71
2024/03/11 03:08:40;;;;;;;;;;;;;;;9.94;70.64;98351.34;4131636;28;19909;-70
2024/03/11 03:10:41;;;;;;;;;;;;;;;9.87;71.06;98350.41;4131038;28;19917;-71
2024/03/11 03:12:41;;;;;;;;;;;;;;;9.77;71.72;98351.50;4131604;28;19916;-70
2024/03/11 03:14:42;;;;;;;;;;;;;;;9.68;71.63;98347.25;4130883;28;20004;-71
2024/03/11 03:16:42;;;;;;;;;;;;;;;9.83;71.64;98350.75;4146116;28;19917;-71
2024/03/11 03:18:43;;;;;;;;;;;;;;;9.80;71.69;98351.16;4131399;28;19914;-71
2024/03/11 03:20:44;;;;;;;;;;;;;;;9.93;70.78;98347.00;4131515;28;19941;-70
2024/03/11 03:22:44;;;;;;;;;;;;;;;9.90;70.65;98339.38;4131355;28;20276;-71
2024/03/11 03:24:44;;;;;;;;;;;;;;;9.95;70.58;98345.00;4143895;28;19917;-70
2024/03/11 03:26:45;;;;;;;;;;;;;;;9.76;71.48;98357.03;4131354;28;19916;-70
2024/03/11 03:28:47;;;;;;;;;;;;;;;9.84;70.43;98352.44;4131420;28;20082;-70
2024/03/11 03:30:48;;;;;;;;;;;;;;;9.83;70.37;98357.97;4131614;28;20413;-71
2024/03/11 03:32:49;;;;;;;;;;;;;;;9.91;70.12;98357.06;4146341;28;19952;-70
2024/03/11 03:34:49;;;;;;;;;;;;;;;9.83;69.79;98355.28;4131021;28;19914;-71
2024/03/11 03:36:49;;;;;;;;;;;;;;;9.77;70.06;98370.19;4130138;28;20402;-70
2024/03/11 03:38:51;;;;;;;;;;;;;;;9.83;70.10;98363.28;4130891;28;19945;-70
2024/03/11 03:40:53;;;;;;;;;;;;;;;9.79;69.51;98376.19;4131077;28;19909;-71
2024/03/11 03:42:54;;;;;;;;;;;;;;;9.96;69.47;98363.50;4131105;28;19909;-71
2024/03/11 03:44:55;;;;;;;;;;;;;;;9.94;68.90;98364.69;4131090;28;19909;-70
2024/03/11 03:46:55;;;;;;;;;;;;;;;9.83;69.03;98372.13;4129916;28;19909;-71
2024/03/11 03:48:55;;;;;;;;;;;;;;;10.01;68.97;98360.31;4131062;28;19914;-70
2024/03/11 03:50:56;;;;;;;;;;;;;;;9.92;69.27;98364.88;4131385;28;19914;-70
2024/03/11 03:52:58;;;;;;;;;;;;;;;9.77;69.32;98372.84;4132175;28;19913;-70
2024/03/11 03:54:58;;;;;;;;;;;;;;;9.57;69.81;98369.88;4128605;28;19968;-70
2024/03/11 03:56:59;;;;;;;;;;;;;;;9.71;69.63;98370.91;4126265;28;20400;-70
2024/03/11 03:59:00;;;;;;;;;;;;;;;9.78;69.39;98374.50;4128833;28;20297;-71
2024/03/11 04:01:02;;;;;;;;;;;;;;;9.79;69.34;98360.16;4130989;28;20509;-70
2024/03/11 04:03:05;;;;;;;;;;;;;;;9.82;68.90;98367.78;4140781;28;19920;-70
2024/03/11 04:05:05;;;;;;;;;;;;;;;9.57;69.55;98371.69;4141430;28;19916;-71
2024/03/11 04:07:06;;;;;;;;;;;;;;;9.61;69.72;98373.00;4141206;28;19913;-71
2024/03/11 04:09:09;;;;;;;;;;;;;;;9.46;70.51;98381.75;4142022;28;19929;-72
2024/03/11 04:11:11;;;;;;;;;;;;;;;9.47;70.57;98380.75;4146662;28;20016;-71
2024/03/11 04:13:12;;;;;;;;;;;;;;;9.47;70.86;98378.09;4147261;28;19914;-73
2024/03/11 04:15:13;;;;;;;;;;;;;;;9.53;70.66;98373.88;4148228;28;19909;-72
2024/03/11 04:17:14;;;;;;;;;;;;;;;9.37;70.88;98374.84;4135474;28;19968;-70
2024/03/11 04:19:15;;;;;;;;;;;;;;;9.27;71.23;98367.09;4130596;28;19913;-70
2024/03/11 04:21:16;;;;;;;;;;;;;;;9.41;70.95;98373.47;4144966;28;20013;-70
2024/03/11 04:23:17;;;;;;;;;;;;;;;9.38;70.51;98367.69;4129484;28;20331;-71
2024/03/11 04:25:19;;;;;;;;;;;;;;;9.37;70.27;98372.16;4129450;28;19922;-71
2024/03/11 04:27:19;;;;;;;;;;;;;;;9.36;70.16;98378.50;4129606;28;19937;-71
2024/03/11 04:29:20;;;;;;;;;;;;;;;9.14;70.84;98385.50;4128757;28;19918;-71
2024/03/11 04:31:20;;;;;;;;;;;;;;;9.18;70.94;98379.63;4145717;28;20452;-70
2024/03/11 04:33:21;;;;;;;;;;;;;;;9.26;70.67;98386.75;4130654;28;19949;-70
2024/03/11 04:35:25;;;;;;;;;;;;;;;9.15;70.62;98385.34;4130056;28;19910;-70
2024/03/11 04:37:25;;;;;;;;;;;;;;;9.33;70.39;98386.88;4130324;28;19918;-71
2024/03/11 04:39:26;;;;;;;;;;;;;;;9.28;70.14;98387.41;4129298;28;20103;-71
2024/03/11 04:41:26;;;;;;;;;;;;;;;9.36;69.96;98384.69;4130543;28;19917;-71
2024/03/11 04:43:27;;;;;;;;;;;;;;;9.47;69.50;98388.75;4129069;28;19973;-71
2024/03/11 04:45:27;;;;;;;;;;;;;;;9.50;69.04;98388.41;4145425;28;19909;-71
2024/03/11 04:47:28;;;;;;;;;;;;;;;9.32;69.09;98390.56;4130844;28;19910;-71
2024/03/11 04:49:28;;;;;;;;;;;;;;;9.39;68.60;98394.16;4130511;28;19914;-71
2024/03/11 04:51:28;;;;;;;;;;;;;;;9.45;68.69;98400.63;4130215;28;19916;-71
2024/03/11 04:53:29;;;;;;;;;;;;;;;9.38;68.80;98397.84;4130851;28;19910;-70
2024/03/11 04:55:30;;;;;;;;;;;;;;;9.33;68.63;98402.88;4130340;28;20358;-70
2024/03/11 04:57:30;;;;;;;;;;;;;;;9.30;68.71;98397.88;4130282;28;19909;-70
2024/03/11 04:59:30;;;;;;;;;;;;;;;9.21;68.85;98400.63;4130077;28;19945;-71
2024/03/11 05:01:31;;;;;;;;;;;;;;;9.08;69.41;98407.53;4134029;28;19916;-70
2024/03/11 05:03:32;;;;;;;;;;;;;;;9.34;68.89;98400.03;4148393;28;19916;-71
2024/03/11 05:05:34;;;;;;;;;;;;;;;9.47;68.30;98410.09;4132771;28;19913;-70
2024/03/11 05:07:35;;;;;;;;;;;;;;;9.33;68.29;98408.22;4133593;28;19953;-70
2024/03/11 05:09:35;;;;;;;;;;;;;;;9.28;68.61;98410.56;4133712;28;19964;-71
2024/03/11 05:11:36;;;;;;;;;;;;;;;9.17;68.58;98414.47;4133842;28;20016;-71
2024/03/11 05:13:36;;;;;;;;;;;;;;;9.02;69.20;98411.72;4133965;28;20024;-71
2024/03/11 05:15:36;;;;;;;;;;;;;;;9.00;69.24;98413.72;4133275;28;19917;-71
2024/03/11 05:17:37;;;;;;;;;;;;;;;9.20;69.13;98414.94;4133472;28;19910;-70
2024/03/11 05:19:37;;;;;;;;;;;;;;;9.09;68.86;98419.84;4133689;28;19910;-71
2024/03/11 05:21:38;;;;;;;;;;;;;;;9.25;68.60;98417.09;4134371;28;19992;-72
2024/03/11 05:23:39;;;;;;;;;;;;;;;9.29;68.49;98420.22;4136477;28;19937;-71
2024/03/11 05:25:39;;;;;;;;;;;;;;;9.39;67.77;98423.50;4136104;28;19910;-71
2024/03/11 05:27:40;;;;;;;;;;;;;;;9.27;67.63;98422.22;4136403;28;19951;-70
2024/03/11 05:29:42;;;;;;;;;;;;;;;9.32;67.59;98427.88;4136508;28;19921;-71
2024/03/11 05:31:42;;;;;;;;;;;;;;;9.30;67.33;98424.56;4136381;28;19964;-72
2024/03/11 05:33:43;;;;;;;;;;;;;;;9.28;67.13;98434.56;4136666;28;19910;-71
2024/03/11 05:35:43;;;;;;;;;;;;;;;9.28;66.74;98439.91;4135451;28;20464;-72
2024/03/11 05:37:44;;;;;;;;;;;;;;;9.32;66.87;98441.22;4136163;28;19918;-71
2024/03/11 05:39:44;;;;;;;;;;;;;;;9.25;66.96;98440.28;4136002;28;19956;-71
2024/03/11 05:41:44;;;;;;;;;;;;;;;9.25;66.97;98453.59;4133719;28;19917;-70
2024/03/11 05:43:45;;;;;;;;;;;;;;;9.19;66.84;98453.28;4133858;28;19913;-71
2024/03/11 05:45:47;;;;;;;;;;;;;;;9.12;67.30;98449.66;4133785;28;19941;-70
2024/03/11 05:47:47;;;;;;;;;;;;;;;9.00;67.54;98451.88;4148083;28;19992;-70
2024/03/11 05:49:48;;;;;;;;;;;;;;;9.01;67.74;98455.38;4131916;28;19963;-70
2024/03/11 05:51:48;;;;;;;;;;;;;;;9.08;67.71;98464.31;4147447;28;19910;-70
2024/03/11 05:53:53;;;;;;;;;;;;;;;9.01;67.86;98466.88;4132898;28;19913;-70
2024/03/11 05:55:54;;;;;;;;;;;;;;;9.02;67.54;98465.03;4132837;28;19964;-71
2024/03/11 05:57:55;;;;;;;;;;;;;;;9.11;67.41;98471.16;4131101;28;19926;-70
2024/03/11 05:59:56;;;;;;;;;;;;;;;9.00;67.71;98472.38;4132654;28;20381;-72
2024/03/11 06:01:59;;;;;;;;;;;;;;;9.02;67.21;98476.50;4130902;28;19929;-71
2024/03/11 06:04:00;;;;;;;;;;;;;;;8.98;67.04;98485.03;4131881;28;20365;-70
2024/03/11 06:06:00;;;;;;;;;;;;;;;8.99;66.74;98489.34;4132579;28;19910;-70
2024/03/11 06:08:00;;;;;;;;;;;;;;;9.02;66.82;98487.16;4147220;28;19909;-71
2024/03/11 06:10:01;;;;;;;;;;;;;;;8.99;66.13;98492.88;4132557;28;19914;-70
2024/03/11 06:12:02;;;;;;;;;;;;;;;9.02;66.62;98494.34;4131099;28;20318;-70
2024/03/11 06:14:03;;;;;;;;;;;;;;;9.07;66.22;98499.16;4132098;28;20161;-69
2024/03/11 06:16:07;;;;;;;;;;;;;;;9.06;66.36;98506.34;4132176;28;19964;-71
2024/03/11 06:18:08;;;;;;;;;;;;;;;8.91;66.74;98511.56;4146832;28;19910;-70
2024/03/11 06:20:09;;;;;;;;;;;;;;;8.95;66.67;98514.72;4132256;28;19909;-70
2024/03/11 06:22:10;;;;;;;;;;;;;;;9.08;66.09;98514.16;4132236;28;20382;-69
2024/03/11 06:24:10;;;;;;;;;;;;;;;9.00;66.08;98515.84;4132072;28;19909;-70
2024/03/11 06:26:11;;;;;;;;;;;;;;;8.84;66.96;98519.41;4146782;28;20030;-70
2024/03/11 06:28:11;;;;;;;;;;;;;;;8.71;66.96;98519.94;4131979;28;19910;-70
2024/03/11 06:30:12;;;;;;;;;;;;;;;8.67;67.23;98520.44;4132380;28;19920;-71
2024/03/11 06:32:13;;;;;;;;;;;;;;;8.61;67.35;98523.78;4131971;28;19909;-70
2024/03/11 06:34:14;;;;;;;;;;;;;;;8.61;67.50;98529.09;4131540;28;19917;-70
2024/03/11 06:36:17;;;;;;;;;;;;;;;8.70;67.48;98526.25;4131832;28;20334;-70
2024/03/11 06:38:18;;;;;;;;;;;;;;;8.61;67.33;98529.94;4131644;28;19976;-71
2024/03/11 06:40:21;;;;;;;;;;;;;;;8.70;67.23;98530.75;4131294;28;19914;-70
2024/03/11 06:42:22;;;;;;;;;;;;;;;8.70;67.12;98536.06;4131669;28;19910;-71
2024/03/11 06:44:24;;;;;;;;;;;;;;;8.81;67.12;98543.72;4131281;28;19914;-71
2024/03/11 06:46:24;;;;;;;;;;;;;;;8.94;67.08;98543.19;4131684;28;19909;-71
2024/03/11 06:48:25;;;;;;;;;;;;;;;8.86;67.09;98549.38;4131363;28;19910;-71
2024/03/11 06:50:25;;;;;;;;;;;;;;;8.95;66.75;98544.03;4131269;28;20563;-71
2024/03/11 06:52:26;;;;;;;;;;;;;;;8.96;66.65;98546.50;4131709;28;20793;-70
2024/03/11 06:54:28;;;;;;;;;;;;;;;8.99;66.43;98548.84;4131180;28;19914;-70
2024/03/11 06:56:30;;;;;;;;;;;;;;;9.08;66.31;98552.28;4129639;28;19952;-71
2024/03/11 06:58:30;;;;;;;;;;;;;;;9.26;65.88;98553.94;4145695;28;19999;-72
2024/03/11 07:00:31;;;;;;;;;;;;;;;9.20;66.00;98550.94;4130267;28;19953;-70
2024/03/11 07:02:32;;;;;;;;;;;;;;;9.42;65.25;98556.53;4123209;28;20282;-72
2024/03/11 07:04:32;;;;;;;;;;;;;;;9.41;65.26;98552.19;4131268;28;20011;-71
2024/03/11 07:06:33;;;;;;;;;;;;;;;9.65;64.71;98561.06;4131250;28;20005;-71
2024/03/11 07:08:33;;;;;;;;;;;;;;;9.69;64.59;98562.38;4131287;28;20282;-70
2024/03/11 07:10:34;;;;;;;;;;;;;;;9.72;64.03;98567.38;4131873;28;19960;-70
2024/03/11 07:12:34;;;;;;;;;;;;;;;9.82;64.17;98572.47;4148014;28;19980;-71
2024/03/11 07:14:43;;;;;;;;;;;;;;;9.66;63.93;98578.72;4146701;28;19909;-73
2024/03/11 07:16:45;;;;;;;;;;;;;;;9.74;64.23;98570.69;4146712;28;19910;-71
2024/03/11 07:18:46;;;;;;;;;;;;;;;9.88;63.04;98587.78;4138494;28;19965;-71
2024/03/11 07:20:48;;;;;;;;;;;;;;;9.98;63.19;98592.91;4132372;28;19929;-70
2024/03/11 07:22:48;;;;;;;;;;;;;;;10.07;62.87;98591.00;4137404;28;20245;-70
2024/03/11 07:24:50;;;;;;;;;;;;;;;10.07;63.30;98591.84;4140324;28;19910;-71
2024/03/11 07:26:51;;;;;;;;;;;;;;;10.20;62.95;98595.78;4133774;28;20031;-70
2024/03/11 07:28:51;;;;;;;;;;;;;;;10.42;62.39;98604.81;4130661;28;20013;-70
2024/03/11 07:30:55;;;;;;;;;;;;;;;10.47;62.19;98601.63;4130840;28;19992;-70
2024/03/11 07:33:06;;;;;;;;;;;;;;;10.50;61.58;98612.75;4131318;28;19949;-70
2024/03/11 07:35:07;;;;;;;;;;;;;;;10.61;61.43;98603.47;4129636;28;19930;-69
2024/03/11 07:37:09;;;;;;;;;;;;;;;10.68;61.15;98607.09;4131726;28;20402;-70
2024/03/11 07:39:10;;;;;;;;;;;;;;;10.50;62.02;98603.91;4131266;28;19909;-70
2024/03/11 07:41:11;;;;;;;;;;;;;;;10.72;61.46;98611.06;4131570;28;20385;-70
2024/03/11 07:43:11;;;;;;;;;;;;;;;10.72;61.43;98611.06;4131152;28;19909;-70
2024/03/11 07:45:12;;;;;;;;;;;;;;;10.57;61.82;98612.88;4130535;28;19916;-71
2024/03/11 07:47:13;;;;;;;;;;;;;;;10.56;61.26;98612.03;4131418;28;19992;-70
2024/03/11 07:49:13;;;;;;;;;;;;;;;10.57;61.44;98623.56;4130644;28;19914;-70
2024/03/11 07:51:14;;;;;;;;;;;;;;;10.54;61.63;98618.59;4129978;28;19910;-70
2024/03/11 07:53:14;;;;;;;;;;;;;;;10.63;61.10;98622.84;4131037;28;19910;-70
2024/03/11 07:55:14;;;;;;;;;;;;;;;10.83;60.63;98622.34;4130613;28;19920;-70
2024/03/11 07:57:15;;;;;;;;;;;;;;;10.92;60.98;98624.75;4131151;28;19917;-72
2024/03/11 07:59:16;;;;;;;;;;;;;;;10.88;60.69;98626.13;4145498;28;20007;-71
2024/03/11 08:01:19;;;;;;;;;;;;;;;11.06;60.14;98631.13;4130245;28;19914;-72
2024/03/11 08:03:20;;;;;;;;;;;;;;;10.80;60.60;98636.06;4130807;28;19968;-70
2024/03/11 08:05:22;;;;;;;;;;;;;;;10.84;60.22;98635.53;4130126;28;19936;-71
2024/03/11 08:07:22;;;;;;;;;;;;;;;11.01;59.35;98636.22;4145225;28;19916;-71
2024/03/11 08:09:23;;;;;;;;;;;;;;;10.99;59.68;98642.75;4130965;28;19961;-71
2024/03/11 08:11:23;;;;;;;;;;;;;;;11.09;59.62;98643.31;4130856;28;19968;-71
2024/03/11 08:13:23;;;;;;;;;;;;;;;11.21;59.39;98651.72;4130436;28;19960;-71
2024/03/11 08:15:24;;;;;;;;;;;;;;;11.08;59.35;98655.84;4129604;28;19976;-71
2024/03/11 08:17:24;;;;;;;;;;;;;;;11.27;58.54;98658.19;4130316;28;19909;-70
2024/03/11 08:19:24;;;;;;;;;;;;;;;11.32;58.25;98655.78;4130310;28;19917;-70
2024/03/11 08:21:24;;;;;;;;;;;;;;;11.28;58.52;98649.97;4130172;28;20354;-70
2024/03/11 08:23:25;;;;;;;;;;;;;;;11.51;57.81;98652.56;4130576;28;20251;-71
2024/03/11 08:25:27;;;;;;;;;;;;;;;11.38;58.43;98657.75;4129775;28;19916;-71
2024/03/11 08:27:27;;;;;;;;;;;;;;;11.83;56.28;98663.06;4130037;28;20393;-71
2024/03/11 08:29:31;;;;;;;;;;;;;;;11.91;56.45;98662.13;4130171;28;19914;-71
2024/03/11 08:31:33;;;;;;;;;;;;;;;11.93;56.64;98662.78;4129929;28;19964;-71
2024/03/11 08:33:34;;;;;;;;;;;;;;;12.29;55.58;98657.44;4130705;28;19913;-71
2024/03/11 08:35:35;;;;;;;;;;;;;;;12.61;54.40;98665.19;4129412;28;19910;-71
2024/03/11 08:37:35;;;;;;;;;;;;;;;13.22;53.12;98655.78;4129734;28;19924;-71
2024/03/11 08:39:36;;;;;;;;;;;;;;;13.48;52.24;98659.69;4129596;28;19981;-70
2024/03/11 08:41:37;;;;;;;;;;;;;;;13.75;51.82;98662.50;4130121;28;20071;-71
2024/03/11 08:43:38;;;;;;;;;;;;;;;13.85;51.82;98663.81;4130566;28;20293;-71
2024/03/11 08:45:41;;;;;;;;;;;;;;;14.27;50.84;98655.69;4129938;28;19928;-71
2024/03/11 08:47:41;;;;;;;;;;;;;;;13.77;51.50;98655.91;4136803;28;19993;-71
2024/03/11 08:49:44;;;;;;;;;;;;;;;13.83;51.05;98655.13;4143546;28;19925;-72
2024/03/11 08:51:44;;;;;;;;;;;;;;;13.95;50.93;98662.59;4134053;28;19916;-71
2024/03/11 08:53:45;;;;;;;;;;;;;;;14.15;51.03;98652.75;4131206;28;20317;-71
2024/03/11 08:55:45;;;;;;;;;;;;;;;13.95;50.87;98657.22;4130492;28;19917;-72
2024/03/11 08:57:45;;;;;;;;;;;;;;;14.32;50.03;98650.50;4130104;28;20346;-71
2024/03/11 08:59:46;;;;;;;;;;;;;;;14.85;48.32;98653.50;4130055;28;20035;-65
2024/03/11 09:01:46;;;;;;;;;;;;;;;15.07;48.50;98649.59;4127932;28;20309;-67
2024/03/11 09:03:48;;;;;;;;;;;;;;;14.93;48.75;98664.06;4126875;28;19910;-64
2024/03/11 09:05:49;;;;;;;;;;;;;;;14.82;48.76;98657.44;4126417;28;19918;-64
2024/03/11 09:07:51;;;;;;;;;;;;;;;14.30;49.15;98665.19;4124902;28;19916;-65
2024/03/11 09:09:51;;;;;;;;;;;;;;;14.63;48.91;98664.44;4121047;28;19925;-64
2024/03/11 09:11:58;;;;;;;;;;;;;;;14.90;48.37;98669.88;4128167;28;20286;-64
2024/03/11 09:13:59;;;;;;;;;;;;;;;14.56;48.84;98669.81;4129966;28;19916;-65
2024/03/11 09:16:00;;;;;;;;;;;;;;;14.63;48.74;98669.81;4130507;28;19910;-64
2024/03/11 09:18:00;;;;;;;;;;;;;;;14.73;48.44;98681.03;4130375;28;19910;-64
2024/03/11 09:20:00;;;;;;;;;;;;;;;14.85;47.67;98680.41;4130435;28;19956;-65
2024/03/11 09:22:02;;;;;;;;;;;;;;;14.70;47.74;98681.44;4144507;28;19917;-65
2024/03/11 09:24:03;;;;;;;;;;;;;;;14.73;48.19;98689.13;4128766;28;19910;-65
2024/03/11 09:26:04;;;;;;;;;;;;;;;14.79;48.19;98695.50;4130675;28;19930;-64
2024/03/11 09:28:08;;;;;;;;;;;;;;;15.19;46.76;98686.63;4132161;28;19910;-65
2024/03/11 09:30:08;;;;;;;;;;;;;;;15.21;47.46;98688.09;4141551;28;19926;-64
2024/03/11 09:32:08;;;;;;;;;;;;;;;15.31;46.98;98686.84;4143411;28;19920;-65
2024/03/11 09:34:09;;;;;;;;;;;;;;;15.32;47.09;98694.69;4152106;28;19913;-64
2024/03/11 09:36:09;;;;;;;;;;;;;;;15.75;45.65;98694.22;4142374;28;19957;-65
2024/03/11 09:38:10;;;;;;;;;;;;;;;15.72;45.80;98689.22;4158020;28;19932;-64
2024/03/11 09:40:11;;;;;;;;;;;;;;;16.16;45.00;98689.53;4144325;28;19940;-65
2024/03/11 09:42:12;;;;;;;;;;;;;;;16.25;45.43;98692.78;4141474;28;19917;-64
2024/03/11 09:44:16;;;;;;;;;;;;;;;16.29;44.69;98694.03;4131909;28;20358;-65
2024/03/11 09:46:20;;;;;;;;;;;;;;;15.68;45.96;98697.94;4131497;28;19913;-64
2024/03/11 09:48:20;;;;;;;;;;;;;;;15.45;46.84;98693.84;4133196;28;19910;-64
2024/03/11 09:50:26;;;;;;;;;;;;;;;15.66;46.23;98706.25;4132924;28;20381;-64
2024/03/11 09:52:27;;;;;;;;;;;;;;;16.41;44.32;98698.75;4132348;28;19918;-64
2024/03/11 09:54:28;;;;;;;;;;;;;;;16.84;44.39;98695.34;4134166;28;19960;-64
2024/03/11 09:56:29;;;;;;;;;;;;;;;16.47;44.85;98696.03;4133123;28;19978;-64
2024/03/11 09:58:32;;;;;;;;;;;;;;;16.47;45.02;98696.03;4134269;28;19917;-64
2024/03/11 10:00:33;;;;;;;;;;;;;;;17.27;43.03;98694.63;4133944;28;19944;-64
2024/03/11 10:02:34;;;;;;;;;;;;;;;17.72;41.99;98687.34;4127881;28;20083;-64
2024/03/11 10:04:34;;;;;;;;;;;;;;;18.29;41.42;98686.28;4132042;28;19953;-64
2024/03/11 10:06:39;;;;;;;;;;;;;;;18.05;41.08;98689.69;4128734;28;20456;-64
2024/03/11 10:08:42;;;;;;;;;;;;;;;18.43;40.26;98685.03;4147013;28;20355;-64
2024/03/11 10:11:02;;;;;;;;;;;;;;;18.36;39.74;98689.72;4129790;28;20008;-65
2024/03/11 10:13:04;;;;;;;;;;;;;;;18.50;39.47;98693.06;4131627;28;19925;-64
2024/03/11 10:15:22;;;;;;;;;;;;;;;17.93;40.16;98695.00;4124321;28;19922;-64
2024/03/11 10:17:24;;;;;;;;;;;;;;;17.90;40.11;98691.94;4131672;28;19913;-65
2024/03/11 10:19:26;;;;;;;;;;;;;;;17.20;41.39;98704.66;4132694;28;20003;-64
2024/03/11 10:21:28;;;;;;;;;;;;;;;16.79;42.39;98706.81;4132483;28;19910;-64
2024/03/11 10:23:29;;;;;;;;;;;;;;;16.00;43.46;98715.09;4131351;28;19909;-64
2024/03/11 10:25:31;;;;;;;;;;;;;;;15.97;43.75;98718.19;4132453;28;19937;-64
2024/03/11 10:27:32;;;;;;;;;;;;;;;16.09;43.92;98717.53;4132208;28;19996;-65
2024/03/11 10:29:33;;;;;;;;;;;;;;;15.34;45.08;98724.13;4131705;28;19909;-64
2024/03/11 10:31:35;;;;;;;;;;;;;;;15.08;45.54;98731.97;4132812;28;19924;-64
2024/03/11 10:33:39;;;;;;;;;;;;;;;15.13;45.66;98726.78;4132540;28;19937;-64
2024/03/11 10:35:43;;;;;;;;;;;;;;;15.07;45.92;98729.47;4132628;28;19913;-64